AirNav   Everest Fuels
 
 1263 users online  

45IL Northwestern Lake Forest Hospital Heliport
Lake Forest, Illinois, USA

GOING TO LAKE FOREST?


FAA INFORMATION EFFECTIVE 25 MARCH 2021

Location

FAA Identifier: 45IL
Lat/Long: 42-15-14.9400N 087-51-48.6900W
42-15.249000N 087-51.811500W
42.2541500,-87.8635250
(estimated)
Elevation: 680 ft. / 207 m (estimated)
Variation: 01W (1985)
From city: 3 miles W of LAKE FOREST, IL
Time zone: UTC -5 (UTC -6 during Standard Time)
Zip code: 60045

Heliport Operations

Heliport use: Private use, MEDICAL USE.
Activation date: 02/1989
Control tower: no
ARTCC: CHICAGO CENTER
FSS: KANKAKEE FLIGHT SERVICE STATION
Attendance: CONTINUOUS
Wind indicator: lighted
Segmented circle: no
Lights: FOR PERIMETER LGTS CALL 847-234-5600.

Heliport Communications

WX ASOS at PWK (9 nm S): PHONE 847-465-0291
WX ASOS at UGN (10 nm N): PHONE 847-782-0876
WX ASOS at ORD (17 nm S): PHONE 773-462-0118
WX AWOS-3 at 06C (19 nm SW): 128.275 ((847) 895-2887)

Nearby radio navigation aids

VOR radial/distance  VOR name  Freq  Var
OBKr065/4.4NORTHBROOK VOR/DME113.0002W
DPAr043/30.8DUPAGE VOR/DME108.4002E

 
NDB name  Hdg/Dist  Freq  Var  ID
WAUKE195/12.937903WUG ..- --.

Heliport Services

Runway Information

Helipad H1

Dimensions: 50 x 50 ft. / 15 x 15 m
Surface: concrete
Runway edge lights: PERI
Latitude: 42-15.249000N
Longitude: 087-51.811500W
Elevation: 680.0 ft.
Traffic pattern: leftleft

Heliport Ownership and Management from official FAA records

Ownership: Privately-owned
Owner: NORTHWESTERN LAKE FOREST HOSPITAL
1000 N. WESTMORELAND ROAD
LAKE FOREST, IL 60045
Phone 847-234-5600
Manager: DON COLBERT
1000 N. WESTMORELAND ROAD
LAKE FOREST, IL 60045
Phone (847) 535-6565

Additional Remarks

A52-H1 150' TOWER LCTD NORTH OF HELIPAD APRXLY 130' FM CENTER OF PAD; 200' TOWERS LCTD EAST OF HELIPAD APRXLY 200' FM CENTER OF PAD.
FOR CD CTC CHICAGO APCH AT 847-289-0926.

Instrument Procedures

There are no published instrument procedures at 45IL.

Some nearby airports with instrument procedures:

KPWK - ChicagoExecutive Airport (9 nm S)
KUGN - Waukegan NTL Airport (10 nm N)
C81 - Campbell Airport (10 nm NW)
KORD - Chicago O'Hare International Airport (17 nm S)
3CK - Lake in the Hills Airport (21 nm W)
 
Loc | Ops | Rwys | IFR | FBO | Links
Com | Nav | Svcs | Stats | Notes
Area around 45IL (Northwestern Lake Forest Hospital Heliport)
 
Road maps at: MapQuest Bing Google
 
Aerial photo
No photo
 
Sectional chart

 
Airport distance calculator
Flying to Northwestern Lake Forest Hospital Heliport? Find the distance to fly.

From to 45IL

Sunrise and sunset
Times for 17-Apr-2021
 Local
(UTC-5)
 Zulu
(UTC)
Morning civil twilight05:3910:39
Sunrise06:0811:08
Sunset19:3400:34
Evening civil twilight20:0301:03

Current date and time
Zulu (UTC)  17-Apr-2021 16:07:09
Local (UTC-5)  17-Apr-2021 11:07:09
 
METAR
KPWK 
8nm S 
171552Z 03007G15KT 10SM CLR 10/03 A2999 RMK AO2 SLP158 T01000028
KUGN 
10nm N 
171555Z 06007KT 10SM CLR 09/02 A2996 RMK AO2 SLP154 T00890017
KORD 
17nm S 
171551Z 06006KT 10SM SCT200 SCT250 09/02 A2996 RMK AO2 SLP148 T00940022 $
K06C 
19nm SW 
171555Z AUTO RMK AO2 PNO
TAF
KORD 
17nm S 
171120Z 1712/1818 35007KT P6SM FEW015 BKN250 FM171400 03010KT P6SM FEW050 BKN250 FM180100 VRB04KT P6SM FEW060 SCT250 FM181500 27009KT P6SM SCT060 BKN250
NOTAMs
Click for the latest NOTAMs
NOTAMs are issued by the DoD/FAA and will open in a separate window not controlled by AirNav.

 

 
 

Would you like to see your business listed on this page?

 If your business provides an interesting product or service to pilots, flight crews, aircraft, or users of the Northwestern Lake Forest Hospital Heliport, you should consider listing it here.  To start the listing process, click on the button below
 
Add a business
 

Other Pages about Northwestern Lake Forest Hospital Heliport

Update a link
 
Copyright © AirNav, LLC. All rights reserved. Privacy Policy  Contact